sensor_id;sensor_type;location;lat;lon;timestamp;P1;durP1;ratioP1;P2;durP2;ratioP2
3066;SDS011;1544;48.834;9.194;2023-06-10T00:01:42;8.53;;;8.00;;
3066;SDS011;1544;48.834;9.194;2023-06-10T00:04:21;9.03;;;8.50;;
3066;SDS011;1544;48.834;9.194;2023-06-10T00:06:57;8.87;;;8.17;;
3066;SDS011;1544;48.834;9.194;2023-06-10T00:09:34;10.17;;;9.30;;
3066;SDS011;1544;48.834;9.194;2023-06-10T00:12:12;9.27;;;8.67;;
3066;SDS011;1544;48.834;9.194;2023-06-10T00:14:48;9.50;;;8.80;;
3066;SDS011;1544;48.834;9.194;2023-06-10T00:17:26;9.23;;;8.57;;
3066;SDS011;1544;48.834;9.194;2023-06-10T00:20:06;9.40;;;8.70;;
3066;SDS011;1544;48.834;9.194;2023-06-10T00:22:48;9.67;;;8.97;;
3066;SDS011;1544;48.834;9.194;2023-06-10T00:25:25;9.23;;;8.63;;
3066;SDS011;1544;48.834;9.194;2023-06-10T00:28:01;8.97;;;8.43;;
3066;SDS011;1544;48.834;9.194;2023-06-10T00:30:37;8.73;;;8.07;;
3066;SDS011;1544;48.834;9.194;2023-06-10T00:33:13;9.13;;;8.53;;
3066;SDS011;1544;48.834;9.194;2023-06-10T00:35:49;9.10;;;8.50;;
3066;SDS011;1544;48.834;9.194;2023-06-10T00:38:25;9.67;;;9.07;;
3066;SDS011;1544;48.834;9.194;2023-06-10T00:41:01;9.30;;;8.60;;
3066;SDS011;1544;48.834;9.194;2023-06-10T00:43:37;10.20;;;9.50;;
3066;SDS011;1544;48.834;9.194;2023-06-10T00:46:13;10.00;;;9.30;;
3066;SDS011;1544;48.834;9.194;2023-06-10T00:48:49;9.67;;;8.97;;
3066;SDS011;1544;48.834;9.194;2023-06-10T00:51:25;9.73;;;9.07;;
3066;SDS011;1544;48.834;9.194;2023-06-10T00:54:02;10.10;;;9.30;;
3066;SDS011;1544;48.834;9.194;2023-06-10T00:56:38;9.50;;;8.80;;
3066;SDS011;1544;48.834;9.194;2023-06-10T00:59:14;10.20;;;9.50;;
3066;SDS011;1544;48.834;9.194;2023-06-10T01:01:52;10.13;;;9.33;;
3066;SDS011;1544;48.834;9.194;2023-06-10T01:04:29;9.63;;;9.00;;
3066;SDS011;1544;48.834;9.194;2023-06-10T01:13:18;10.30;;;9.67;;
3066;SDS011;1544;48.834;9.194;2023-06-10T01:15:59;9.93;;;9.17;;
3066;SDS011;1544;48.834;9.194;2023-06-10T01:18:35;10.00;;;9.37;;
3066;SDS011;1544;48.834;9.194;2023-06-10T01:21:21;10.13;;;9.37;;
3066;SDS011;1544;48.834;9.194;2023-06-10T01:24:01;10.50;;;9.70;;
3066;SDS011;1544;48.834;9.194;2023-06-10T01:26:37;10.83;;;9.93;;
3066;SDS011;1544;48.834;9.194;2023-06-10T01:29:28;10.07;;;9.27;;
3066;SDS011;1544;48.834;9.194;2023-06-10T01:32:21;11.00;;;10.20;;
3066;SDS011;1544;48.834;9.194;2023-06-10T01:35:06;11.90;;;11.00;;
3066;SDS011;1544;48.834;9.194;2023-06-10T01:37:45;11.63;;;10.73;;
3066;SDS011;1544;48.834;9.194;2023-06-10T01:40:23;11.67;;;10.60;;
3066;SDS011;1544;48.834;9.194;2023-06-10T01:43:01;11.20;;;10.40;;
3066;SDS011;1544;48.834;9.194;2023-06-10T01:45:37;11.00;;;10.20;;
3066;SDS011;1544;48.834;9.194;2023-06-10T01:48:13;10.03;;;9.23;;
3066;SDS011;1544;48.834;9.194;2023-06-10T01:50:50;10.60;;;9.90;;
3066;SDS011;1544;48.834;9.194;2023-06-10T01:53:26;10.40;;;9.60;;
3066;SDS011;1544;48.834;9.194;2023-06-10T01:56:02;10.07;;;9.37;;
3066;SDS011;1544;48.834;9.194;2023-06-10T01:58:38;11.20;;;10.40;;
3066;SDS011;1544;48.834;9.194;2023-06-10T02:01:14;10.50;;;9.70;;
3066;SDS011;1544;48.834;9.194;2023-06-10T02:03:50;11.00;;;10.30;;
3066;SDS011;1544;48.834;9.194;2023-06-10T02:06:26;10.57;;;9.67;;
3066;SDS011;1544;48.834;9.194;2023-06-10T02:09:02;9.70;;;9.00;;
3066;SDS011;1544;48.834;9.194;2023-06-10T02:11:38;10.93;;;10.03;;
3066;SDS011;1544;48.834;9.194;2023-06-10T02:14:15;12.13;;;11.23;;
3066;SDS011;1544;48.834;9.194;2023-06-10T02:16:51;9.70;;;9.00;;
3066;SDS011;1544;48.834;9.194;2023-06-10T02:19:31;10.27;;;9.57;;
3066;SDS011;1544;48.834;9.194;2023-06-10T02:22:06;11.80;;;11.00;;
3066;SDS011;1544;48.834;9.194;2023-06-10T02:24:43;11.87;;;10.97;;
3066;SDS011;1544;48.834;9.194;2023-06-10T02:27:20;11.13;;;10.23;;
3066;SDS011;1544;48.834;9.194;2023-06-10T02:29:56;11.43;;;10.43;;
3066;SDS011;1544;48.834;9.194;2023-06-10T02:32:33;11.33;;;10.43;;
3066;SDS011;1544;48.834;9.194;2023-06-10T02:35:10;11.33;;;10.50;;
3066;SDS011;1544;48.834;9.194;2023-06-10T02:37:47;11.60;;;10.70;;
3066;SDS011;1544;48.834;9.194;2023-06-10T02:40:23;11.40;;;10.50;;
3066;SDS011;1544;48.834;9.194;2023-06-10T02:42:59;11.83;;;10.80;;
3066;SDS011;1544;48.834;9.194;2023-06-10T02:45:35;11.37;;;10.53;;
3066;SDS011;1544;48.834;9.194;2023-06-10T02:48:12;12.00;;;11.00;;
3066;SDS011;1544;48.834;9.194;2023-06-10T02:50:49;12.13;;;11.10;;
3066;SDS011;1544;48.834;9.194;2023-06-10T02:53:31;12.00;;;11.07;;
3066;SDS011;1544;48.834;9.194;2023-06-10T02:56:15;10.60;;;9.90;;
3066;SDS011;1544;48.834;9.194;2023-06-10T02:58:52;10.63;;;9.83;;
3066;SDS011;1544;48.834;9.194;2023-06-10T03:01:30;11.50;;;10.60;;
3066;SDS011;1544;48.834;9.194;2023-06-10T03:04:14;10.30;;;9.60;;
3066;SDS011;1544;48.834;9.194;2023-06-10T03:06:58;10.80;;;10.00;;
3066;SDS011;1544;48.834;9.194;2023-06-10T03:09:41;10.10;;;9.30;;
3066;SDS011;1544;48.834;9.194;2023-06-10T03:12:21;10.37;;;9.57;;
3066;SDS011;1544;48.834;9.194;2023-06-10T03:14:57;10.47;;;9.57;;
3066;SDS011;1544;48.834;9.194;2023-06-10T03:17:33;10.27;;;9.57;;
3066;SDS011;1544;48.834;9.194;2023-06-10T03:20:10;10.80;;;10.00;;
3066;SDS011;1544;48.834;9.194;2023-06-10T03:22:49;11.10;;;10.20;;
3066;SDS011;1544;48.834;9.194;2023-06-10T03:25:25;10.30;;;9.60;;
3066;SDS011;1544;48.834;9.194;2023-06-10T03:28:02;10.70;;;9.90;;
3066;SDS011;1544;48.834;9.194;2023-06-10T03:30:38;9.63;;;8.83;;
3066;SDS011;1544;48.834;9.194;2023-06-10T03:33:14;10.90;;;10.13;;
3066;SDS011;1544;48.834;9.194;2023-06-10T03:35:52;10.63;;;9.83;;
3066;SDS011;1544;48.834;9.194;2023-06-10T03:38:28;10.50;;;9.80;;
3066;SDS011;1544;48.834;9.194;2023-06-10T03:41:04;9.40;;;8.80;;
3066;SDS011;1544;48.834;9.194;2023-06-10T03:43:41;9.80;;;9.10;;
3066;SDS011;1544;48.834;9.194;2023-06-10T03:46:20;10.90;;;10.03;;
3066;SDS011;1544;48.834;9.194;2023-06-10T03:48:57;9.90;;;9.20;;
3066;SDS011;1544;48.834;9.194;2023-06-10T03:51:36;10.10;;;9.30;;
3066;SDS011;1544;48.834;9.194;2023-06-10T03:54:12;9.73;;;8.93;;
3066;SDS011;1544;48.834;9.194;2023-06-10T03:56:48;9.83;;;9.20;;
3066;SDS011;1544;48.834;9.194;2023-06-10T03:59:24;9.53;;;8.93;;
3066;SDS011;1544;48.834;9.194;2023-06-10T04:02:00;9.90;;;9.20;;
3066;SDS011;1544;48.834;9.194;2023-06-10T04:04:37;9.00;;;8.40;;
3066;SDS011;1544;48.834;9.194;2023-06-10T04:07:14;9.33;;;8.67;;
3066;SDS011;1544;48.834;9.194;2023-06-10T04:09:50;8.90;;;8.30;;
3066;SDS011;1544;48.834;9.194;2023-06-10T04:12:26;9.27;;;8.63;;
3066;SDS011;1544;48.834;9.194;2023-06-10T04:15:03;9.83;;;9.10;;
3066;SDS011;1544;48.834;9.194;2023-06-10T04:17:40;9.47;;;8.77;;
3066;SDS011;1544;48.834;9.194;2023-06-10T04:20:19;9.57;;;8.87;;
3066;SDS011;1544;48.834;9.194;2023-06-10T04:22:56;9.30;;;8.60;;
3066;SDS011;1544;48.834;9.194;2023-06-10T04:25:32;8.93;;;8.33;;
3066;SDS011;1544;48.834;9.194;2023-06-10T04:28:09;9.17;;;8.47;;
3066;SDS011;1544;48.834;9.194;2023-06-10T04:30:45;8.90;;;8.10;;
3066;SDS011;1544;48.834;9.194;2023-06-10T04:33:22;9.30;;;8.50;;
3066;SDS011;1544;48.834;9.194;2023-06-10T04:35:58;10.03;;;9.20;;
3066;SDS011;1544;48.834;9.194;2023-06-10T04:38:37;10.00;;;9.20;;
3066;SDS011;1544;48.834;9.194;2023-06-10T04:41:13;9.37;;;8.73;;
3066;SDS011;1544;48.834;9.194;2023-06-10T04:43:50;9.23;;;8.43;;
3066;SDS011;1544;48.834;9.194;2023-06-10T04:46:27;10.00;;;9.20;;
3066;SDS011;1544;48.834;9.194;2023-06-10T04:49:05;10.10;;;9.40;;
3066;SDS011;1544;48.834;9.194;2023-06-10T04:51:41;8.80;;;8.10;;
3066;SDS011;1544;48.834;9.194;2023-06-10T04:54:17;10.27;;;9.57;;
3066;SDS011;1544;48.834;9.194;2023-06-10T04:56:54;8.77;;;8.03;;
3066;SDS011;1544;48.834;9.194;2023-06-10T04:59:30;9.33;;;8.63;;
3066;SDS011;1544;48.834;9.194;2023-06-10T05:02:06;8.77;;;8.17;;
3066;SDS011;1544;48.834;9.194;2023-06-10T05:04:42;9.00;;;8.40;;
3066;SDS011;1544;48.834;9.194;2023-06-10T05:07:18;8.70;;;8.10;;
3066;SDS011;1544;48.834;9.194;2023-06-10T05:09:54;9.07;;;8.37;;
3066;SDS011;1544;48.834;9.194;2023-06-10T05:12:30;9.00;;;8.40;;
3066;SDS011;1544;48.834;9.194;2023-06-10T05:15:07;8.23;;;7.70;;
3066;SDS011;1544;48.834;9.194;2023-06-10T05:17:44;8.80;;;8.20;;
3066;SDS011;1544;48.834;9.194;2023-06-10T05:20:20;7.43;;;6.93;;
3066;SDS011;1544;48.834;9.194;2023-06-10T05:22:57;8.60;;;8.00;;
3066;SDS011;1544;48.834;9.194;2023-06-10T05:25:33;7.30;;;6.80;;
3066;SDS011;1544;48.834;9.194;2023-06-10T05:28:09;7.77;;;7.20;;
3066;SDS011;1544;48.834;9.194;2023-06-10T05:30:49;9.90;;;9.07;;
3066;SDS011;1544;48.834;9.194;2023-06-10T05:33:25;7.37;;;6.87;;
3066;SDS011;1544;48.834;9.194;2023-06-10T05:36:01;7.93;;;7.40;;
3066;SDS011;1544;48.834;9.194;2023-06-10T05:38:39;8.17;;;7.57;;
3066;SDS011;1544;48.834;9.194;2023-06-10T05:41:17;7.57;;;6.90;;
3066;SDS011;1544;48.834;9.194;2023-06-10T05:43:53;7.60;;;7.10;;
3066;SDS011;1544;48.834;9.194;2023-06-10T05:46:28;6.60;;;6.20;;
3066;SDS011;1544;48.834;9.194;2023-06-10T05:49:05;6.90;;;6.50;;
3066;SDS011;1544;48.834;9.194;2023-06-10T05:51:40;7.30;;;6.80;;
3066;SDS011;1544;48.834;9.194;2023-06-10T05:54:16;7.30;;;6.70;;
3066;SDS011;1544;48.834;9.194;2023-06-10T05:56:52;7.23;;;6.73;;
3066;SDS011;1544;48.834;9.194;2023-06-10T05:59:29;6.13;;;5.73;;
3066;SDS011;1544;48.834;9.194;2023-06-10T06:02:05;5.60;;;5.20;;
3066;SDS011;1544;48.834;9.194;2023-06-10T06:04:41;5.50;;;5.10;;
3066;SDS011;1544;48.834;9.194;2023-06-10T06:07:17;6.63;;;6.10;;
3066;SDS011;1544;48.834;9.194;2023-06-10T06:09:56;6.83;;;6.33;;
3066;SDS011;1544;48.834;9.194;2023-06-10T06:12:31;6.90;;;6.47;;
3066;SDS011;1544;48.834;9.194;2023-06-10T06:15:08;6.40;;;6.03;;
3066;SDS011;1544;48.834;9.194;2023-06-10T06:17:46;6.50;;;6.10;;
3066;SDS011;1544;48.834;9.194;2023-06-10T06:20:22;5.80;;;5.40;;
3066;SDS011;1544;48.834;9.194;2023-06-10T06:22:58;5.60;;;5.20;;
3066;SDS011;1544;48.834;9.194;2023-06-10T06:25:34;5.30;;;5.00;;
3066;SDS011;1544;48.834;9.194;2023-06-10T06:28:11;4.80;;;4.50;;
3066;SDS011;1544;48.834;9.194;2023-06-10T06:30:47;6.27;;;5.87;;
3066;SDS011;1544;48.834;9.194;2023-06-10T06:33:23;5.43;;;5.03;;
3066;SDS011;1544;48.834;9.194;2023-06-10T06:35:59;6.10;;;5.60;;
3066;SDS011;1544;48.834;9.194;2023-06-10T06:38:37;5.90;;;5.40;;
3066;SDS011;1544;48.834;9.194;2023-06-10T06:41:13;5.67;;;5.17;;
3066;SDS011;1544;48.834;9.194;2023-06-10T06:43:49;4.60;;;4.20;;
3066;SDS011;1544;48.834;9.194;2023-06-10T06:46:38;5.47;;;4.97;;
3066;SDS011;1544;48.834;9.194;2023-06-10T06:49:14;5.87;;;5.27;;
3066;SDS011;1544;48.834;9.194;2023-06-10T06:51:50;5.90;;;5.50;;
3066;SDS011;1544;48.834;9.194;2023-06-10T06:54:26;5.63;;;5.23;;
3066;SDS011;1544;48.834;9.194;2023-06-10T06:57:02;5.70;;;5.30;;
3066;SDS011;1544;48.834;9.194;2023-06-10T06:59:38;5.43;;;5.13;;
3066;SDS011;1544;48.834;9.194;2023-06-10T07:02:14;5.13;;;4.77;;
3066;SDS011;1544;48.834;9.194;2023-06-10T07:04:50;6.00;;;5.50;;
3066;SDS011;1544;48.834;9.194;2023-06-10T07:07:26;5.40;;;5.00;;
3066;SDS011;1544;48.834;9.194;2023-06-10T07:10:02;5.23;;;4.83;;
3066;SDS011;1544;48.834;9.194;2023-06-10T07:12:39;5.60;;;5.20;;
3066;SDS011;1544;48.834;9.194;2023-06-10T07:15:14;4.87;;;4.47;;
3066;SDS011;1544;48.834;9.194;2023-06-10T07:17:51;4.90;;;4.60;;
3066;SDS011;1544;48.834;9.194;2023-06-10T07:20:27;4.87;;;4.57;;
3066;SDS011;1544;48.834;9.194;2023-06-10T07:23:03;5.50;;;5.13;;
3066;SDS011;1544;48.834;9.194;2023-06-10T07:25:40;5.33;;;5.03;;
3066;SDS011;1544;48.834;9.194;2023-06-10T07:28:17;5.40;;;5.00;;
3066;SDS011;1544;48.834;9.194;2023-06-10T07:30:52;4.93;;;4.63;;
3066;SDS011;1544;48.834;9.194;2023-06-10T07:33:29;5.40;;;5.00;;
3066;SDS011;1544;48.834;9.194;2023-06-10T07:36:05;5.07;;;4.77;;
3066;SDS011;1544;48.834;9.194;2023-06-10T07:38:42;4.80;;;4.60;;
3066;SDS011;1544;48.834;9.194;2023-06-10T07:41:18;5.07;;;4.77;;
3066;SDS011;1544;48.834;9.194;2023-06-10T07:43:54;4.27;;;4.00;;
3066;SDS011;1544;48.834;9.194;2023-06-10T07:46:31;4.80;;;4.50;;
3066;SDS011;1544;48.834;9.194;2023-06-10T07:49:07;5.07;;;4.77;;
3066;SDS011;1544;48.834;9.194;2023-06-10T07:51:43;5.70;;;5.40;;
3066;SDS011;1544;48.834;9.194;2023-06-10T07:54:20;4.63;;;4.43;;
3066;SDS011;1544;48.834;9.194;2023-06-10T07:56:56;5.17;;;4.87;;
3066;SDS011;1544;48.834;9.194;2023-06-10T07:59:32;5.73;;;5.33;;
3066;SDS011;1544;48.834;9.194;2023-06-10T08:02:08;4.87;;;4.57;;
3066;SDS011;1544;48.834;9.194;2023-06-10T08:04:44;5.20;;;4.80;;
3066;SDS011;1544;48.834;9.194;2023-06-10T08:07:20;5.70;;;5.30;;
3066;SDS011;1544;48.834;9.194;2023-06-10T08:09:57;4.87;;;4.57;;
3066;SDS011;1544;48.834;9.194;2023-06-10T08:12:33;4.87;;;4.57;;
3066;SDS011;1544;48.834;9.194;2023-06-10T08:15:10;5.90;;;5.40;;
3066;SDS011;1544;48.834;9.194;2023-06-10T08:17:46;5.40;;;5.10;;
3066;SDS011;1544;48.834;9.194;2023-06-10T08:20:22;5.40;;;5.10;;
3066;SDS011;1544;48.834;9.194;2023-06-10T08:22:58;5.07;;;4.60;;
3066;SDS011;1544;48.834;9.194;2023-06-10T08:25:34;10.77;;;6.70;;
3066;SDS011;1544;48.834;9.194;2023-06-10T08:28:10;5.87;;;5.53;;
3066;SDS011;1544;48.834;9.194;2023-06-10T08:30:46;5.30;;;5.00;;
3066;SDS011;1544;48.834;9.194;2023-06-10T08:33:22;5.73;;;5.37;;
3066;SDS011;1544;48.834;9.194;2023-06-10T08:35:58;5.53;;;5.20;;
3066;SDS011;1544;48.834;9.194;2023-06-10T08:38:34;6.17;;;5.77;;
3066;SDS011;1544;48.834;9.194;2023-06-10T08:41:12;5.40;;;5.10;;
3066;SDS011;1544;48.834;9.194;2023-06-10T08:44:08;6.33;;;5.90;;
3066;SDS011;1544;48.834;9.194;2023-06-10T08:46:55;5.90;;;5.50;;
3066;SDS011;1544;48.834;9.194;2023-06-10T08:49:36;6.47;;;5.87;;
3066;SDS011;1544;48.834;9.194;2023-06-10T08:52:18;6.37;;;6.07;;
3066;SDS011;1544;48.834;9.194;2023-06-10T08:54:59;6.30;;;5.90;;
3066;SDS011;1544;48.834;9.194;2023-06-10T08:57:40;6.03;;;5.70;;
3066;SDS011;1544;48.834;9.194;2023-06-10T09:00:18;5.30;;;5.00;;
3066;SDS011;1544;48.834;9.194;2023-06-10T09:02:58;5.50;;;5.20;;
3066;SDS011;1544;48.834;9.194;2023-06-10T09:05:39;5.30;;;5.00;;
3066;SDS011;1544;48.834;9.194;2023-06-10T09:08:16;5.37;;;5.10;;
3066;SDS011;1544;48.834;9.194;2023-06-10T09:10:53;5.60;;;5.30;;
3066;SDS011;1544;48.834;9.194;2023-06-10T09:13:29;5.33;;;5.03;;
3066;SDS011;1544;48.834;9.194;2023-06-10T09:16:05;5.17;;;4.87;;
3066;SDS011;1544;48.834;9.194;2023-06-10T09:18:41;6.30;;;5.87;;
3066;SDS011;1544;48.834;9.194;2023-06-10T09:21:17;5.83;;;5.43;;
3066;SDS011;1544;48.834;9.194;2023-06-10T09:23:53;6.50;;;6.00;;
3066;SDS011;1544;48.834;9.194;2023-06-10T09:26:30;5.30;;;5.00;;
3066;SDS011;1544;48.834;9.194;2023-06-10T09:29:08;5.70;;;5.20;;
3066;SDS011;1544;48.834;9.194;2023-06-10T09:31:46;5.33;;;4.93;;
3066;SDS011;1544;48.834;9.194;2023-06-10T09:34:24;4.90;;;4.70;;
3066;SDS011;1544;48.834;9.194;2023-06-10T09:37:02;5.03;;;4.73;;
3066;SDS011;1544;48.834;9.194;2023-06-10T09:39:38;6.03;;;5.73;;
3066;SDS011;1544;48.834;9.194;2023-06-10T09:42:18;4.63;;;4.43;;
3066;SDS011;1544;48.834;9.194;2023-06-10T09:44:56;5.70;;;5.30;;
3066;SDS011;1544;48.834;9.194;2023-06-10T09:47:31;5.50;;;5.20;;
3066;SDS011;1544;48.834;9.194;2023-06-10T09:50:08;5.50;;;5.20;;
3066;SDS011;1544;48.834;9.194;2023-06-10T09:52:50;5.17;;;4.97;;
3066;SDS011;1544;48.834;9.194;2023-06-10T09:55:26;4.93;;;4.67;;
3066;SDS011;1544;48.834;9.194;2023-06-10T09:58:03;4.77;;;4.57;;
3066;SDS011;1544;48.834;9.194;2023-06-10T10:00:39;4.90;;;4.60;;
3066;SDS011;1544;48.834;9.194;2023-06-10T10:03:21;4.70;;;4.50;;
3066;SDS011;1544;48.834;9.194;2023-06-10T10:05:59;5.57;;;5.37;;
3066;SDS011;1544;48.834;9.194;2023-06-10T10:08:36;4.97;;;4.57;;
3066;SDS011;1544;48.834;9.194;2023-06-10T10:11:12;5.13;;;4.90;;
3066;SDS011;1544;48.834;9.194;2023-06-10T10:13:50;4.83;;;4.63;;
3066;SDS011;1544;48.834;9.194;2023-06-10T10:16:29;6.23;;;5.73;;
3066;SDS011;1544;48.834;9.194;2023-06-10T10:19:23;5.10;;;4.90;;
3066;SDS011;1544;48.834;9.194;2023-06-10T10:22:10;4.40;;;4.20;;
3066;SDS011;1544;48.834;9.194;2023-06-10T10:24:56;5.10;;;4.80;;
3066;SDS011;1544;48.834;9.194;2023-06-10T10:27:33;4.63;;;4.43;;
3066;SDS011;1544;48.834;9.194;2023-06-10T10:30:16;4.83;;;4.63;;
3066;SDS011;1544;48.834;9.194;2023-06-10T10:35:45;5.20;;;5.00;;
3066;SDS011;1544;48.834;9.194;2023-06-10T10:38:22;4.90;;;4.70;;
3066;SDS011;1544;48.834;9.194;2023-06-10T10:40:58;5.67;;;5.33;;
3066;SDS011;1544;48.834;9.194;2023-06-10T10:43:36;4.93;;;4.73;;
3066;SDS011;1544;48.834;9.194;2023-06-10T10:46:14;5.30;;;5.03;;
3066;SDS011;1544;48.834;9.194;2023-06-10T10:48:53;4.50;;;4.30;;
3066;SDS011;1544;48.834;9.194;2023-06-10T10:51:33;5.13;;;4.93;;
3066;SDS011;1544;48.834;9.194;2023-06-10T10:54:11;4.70;;;4.43;;
3066;SDS011;1544;48.834;9.194;2023-06-10T10:59:45;5.00;;;4.70;;
3066;SDS011;1544;48.834;9.194;2023-06-10T11:05:30;4.70;;;4.50;;
3066;SDS011;1544;48.834;9.194;2023-06-10T11:16:40;4.50;;;4.30;;
3066;SDS011;1544;48.834;9.194;2023-06-10T11:19:36;4.63;;;4.43;;
3066;SDS011;1544;48.834;9.194;2023-06-10T11:22:22;4.37;;;4.17;;
3066;SDS011;1544;48.834;9.194;2023-06-10T11:24:57;3.90;;;3.70;;
3066;SDS011;1544;48.834;9.194;2023-06-10T11:27:37;4.17;;;4.00;;
3066;SDS011;1544;48.834;9.194;2023-06-10T11:30:18;5.03;;;4.73;;
3066;SDS011;1544;48.834;9.194;2023-06-10T11:32:55;5.03;;;4.23;;
3066;SDS011;1544;48.834;9.194;2023-06-10T11:35:35;4.60;;;4.40;;
3066;SDS011;1544;48.834;9.194;2023-06-10T11:38:11;4.60;;;4.40;;
3066;SDS011;1544;48.834;9.194;2023-06-10T11:40:52;4.60;;;4.40;;
3066;SDS011;1544;48.834;9.194;2023-06-10T11:43:28;4.57;;;4.27;;
3066;SDS011;1544;48.834;9.194;2023-06-10T11:46:05;4.80;;;4.50;;
3066;SDS011;1544;48.834;9.194;2023-06-10T11:48:51;3.73;;;3.63;;
3066;SDS011;1544;48.834;9.194;2023-06-10T11:51:29;4.13;;;3.93;;
3066;SDS011;1544;48.834;9.194;2023-06-10T11:54:08;4.60;;;4.30;;
3066;SDS011;1544;48.834;9.194;2023-06-10T11:56:45;4.60;;;4.40;;
3066;SDS011;1544;48.834;9.194;2023-06-10T11:59:22;3.80;;;3.60;;
3066;SDS011;1544;48.834;9.194;2023-06-10T12:02:02;4.37;;;4.17;;
3066;SDS011;1544;48.834;9.194;2023-06-10T12:04:38;3.77;;;3.57;;
3066;SDS011;1544;48.834;9.194;2023-06-10T12:07:18;4.03;;;3.93;;
3066;SDS011;1544;48.834;9.194;2023-06-10T12:09:58;3.70;;;3.60;;
3066;SDS011;1544;48.834;9.194;2023-06-10T12:12:53;3.60;;;3.40;;
3066;SDS011;1544;48.834;9.194;2023-06-10T12:15:29;4.00;;;3.80;;
3066;SDS011;1544;48.834;9.194;2023-06-10T12:18:05;4.30;;;4.10;;
3066;SDS011;1544;48.834;9.194;2023-06-10T12:20:41;4.10;;;3.87;;
3066;SDS011;1544;48.834;9.194;2023-06-10T12:23:18;3.83;;;3.60;;
3066;SDS011;1544;48.834;9.194;2023-06-10T12:25:55;3.50;;;3.40;;
3066;SDS011;1544;48.834;9.194;2023-06-10T12:28:31;4.27;;;3.97;;
3066;SDS011;1544;48.834;9.194;2023-06-10T12:31:07;3.73;;;3.63;;
3066;SDS011;1544;48.834;9.194;2023-06-10T12:33:43;3.90;;;3.70;;
3066;SDS011;1544;48.834;9.194;2023-06-10T12:36:21;4.20;;;3.90;;
3066;SDS011;1544;48.834;9.194;2023-06-10T12:39:02;4.13;;;3.93;;
3066;SDS011;1544;48.834;9.194;2023-06-10T12:41:46;4.30;;;4.10;;
3066;SDS011;1544;48.834;9.194;2023-06-10T12:44:30;4.30;;;4.00;;
3066;SDS011;1544;48.834;9.194;2023-06-10T12:47:09;3.60;;;3.40;;
3066;SDS011;1544;48.834;9.194;2023-06-10T12:49:50;4.10;;;3.80;;
3066;SDS011;1544;48.834;9.194;2023-06-10T12:52:26;3.50;;;3.40;;
3066;SDS011;1544;48.834;9.194;2023-06-10T12:55:02;3.87;;;3.67;;
3066;SDS011;1544;48.834;9.194;2023-06-10T12:57:47;4.00;;;3.80;;
3066;SDS011;1544;48.834;9.194;2023-06-10T13:00:24;2.90;;;2.80;;
3066;SDS011;1544;48.834;9.194;2023-06-10T13:03:01;4.67;;;4.37;;
3066;SDS011;1544;48.834;9.194;2023-06-10T13:05:37;4.10;;;3.90;;
3066;SDS011;1544;48.834;9.194;2023-06-10T13:08:14;4.50;;;4.30;;
3066;SDS011;1544;48.834;9.194;2023-06-10T13:10:50;3.50;;;3.30;;
3066;SDS011;1544;48.834;9.194;2023-06-10T13:13:26;3.40;;;3.30;;
3066;SDS011;1544;48.834;9.194;2023-06-10T13:16:03;3.40;;;3.10;;
3066;SDS011;1544;48.834;9.194;2023-06-10T13:18:39;3.53;;;3.33;;
3066;SDS011;1544;48.834;9.194;2023-06-10T13:21:15;3.20;;;3.10;;
3066;SDS011;1544;48.834;9.194;2023-06-10T13:23:51;3.83;;;3.63;;
3066;SDS011;1544;48.834;9.194;2023-06-10T13:26:27;3.13;;;2.93;;
3066;SDS011;1544;48.834;9.194;2023-06-10T13:29:03;3.07;;;2.87;;
3066;SDS011;1544;48.834;9.194;2023-06-10T13:31:40;3.33;;;3.23;;
3066;SDS011;1544;48.834;9.194;2023-06-10T13:34:17;5.77;;;3.17;;
3066;SDS011;1544;48.834;9.194;2023-06-10T13:36:53;2.90;;;2.70;;
3066;SDS011;1544;48.834;9.194;2023-06-10T13:39:29;2.80;;;2.70;;
3066;SDS011;1544;48.834;9.194;2023-06-10T13:42:05;3.10;;;2.80;;
3066;SDS011;1544;48.834;9.194;2023-06-10T13:44:43;3.23;;;3.03;;
3066;SDS011;1544;48.834;9.194;2023-06-10T13:47:19;2.93;;;2.83;;
3066;SDS011;1544;48.834;9.194;2023-06-10T13:49:56;3.10;;;2.90;;
3066;SDS011;1544;48.834;9.194;2023-06-10T13:52:32;3.53;;;3.33;;
3066;SDS011;1544;48.834;9.194;2023-06-10T13:55:08;3.33;;;3.23;;
3066;SDS011;1544;48.834;9.194;2023-06-10T13:57:45;3.90;;;3.70;;
3066;SDS011;1544;48.834;9.194;2023-06-10T14:00:20;2.77;;;2.67;;
3066;SDS011;1544;48.834;9.194;2023-06-10T14:02:56;3.40;;;3.30;;
3066;SDS011;1544;48.834;9.194;2023-06-10T14:05:32;3.20;;;3.10;;
3066;SDS011;1544;48.834;9.194;2023-06-10T14:08:09;4.20;;;4.10;;
3066;SDS011;1544;48.834;9.194;2023-06-10T14:10:45;2.90;;;2.80;;
3066;SDS011;1544;48.834;9.194;2023-06-10T14:13:21;3.40;;;3.20;;
3066;SDS011;1544;48.834;9.194;2023-06-10T14:15:57;2.83;;;2.63;;
3066;SDS011;1544;48.834;9.194;2023-06-10T14:18:37;3.40;;;3.20;;
3066;SDS011;1544;48.834;9.194;2023-06-10T14:21:13;3.40;;;3.30;;
3066;SDS011;1544;48.834;9.194;2023-06-10T14:23:49;5.27;;;5.00;;
3066;SDS011;1544;48.834;9.194;2023-06-10T14:26:27;3.73;;;3.53;;
3066;SDS011;1544;48.834;9.194;2023-06-10T14:29:03;3.20;;;3.10;;
3066;SDS011;1544;48.834;9.194;2023-06-10T14:31:40;3.50;;;3.20;;
3066;SDS011;1544;48.834;9.194;2023-06-10T14:34:16;3.23;;;3.13;;
3066;SDS011;1544;48.834;9.194;2023-06-10T14:36:52;3.00;;;2.90;;
3066;SDS011;1544;48.834;9.194;2023-06-10T14:39:28;3.20;;;3.03;;
3066;SDS011;1544;48.834;9.194;2023-06-10T14:42:04;3.80;;;3.67;;
3066;SDS011;1544;48.834;9.194;2023-06-10T14:44:41;3.20;;;3.10;;
3066;SDS011;1544;48.834;9.194;2023-06-10T14:47:17;3.30;;;3.10;;
3066;SDS011;1544;48.834;9.194;2023-06-10T14:49:53;4.10;;;3.90;;
3066;SDS011;1544;48.834;9.194;2023-06-10T14:52:29;3.50;;;3.40;;
3066;SDS011;1544;48.834;9.194;2023-06-10T14:55:05;4.00;;;3.90;;
3066;SDS011;1544;48.834;9.194;2023-06-10T14:57:41;3.60;;;3.50;;
3066;SDS011;1544;48.834;9.194;2023-06-10T15:00:17;2.90;;;2.80;;
3066;SDS011;1544;48.834;9.194;2023-06-10T15:02:59;4.97;;;3.60;;
3066;SDS011;1544;48.834;9.194;2023-06-10T15:05:35;3.63;;;3.43;;
3066;SDS011;1544;48.834;9.194;2023-06-10T15:08:12;2.80;;;2.70;;
3066;SDS011;1544;48.834;9.194;2023-06-10T15:10:48;3.27;;;3.17;;
3066;SDS011;1544;48.834;9.194;2023-06-10T15:13:24;3.60;;;3.40;;
3066;SDS011;1544;48.834;9.194;2023-06-10T15:16:00;3.27;;;3.17;;
3066;SDS011;1544;48.834;9.194;2023-06-10T15:18:38;3.47;;;3.37;;
3066;SDS011;1544;48.834;9.194;2023-06-10T15:21:14;4.30;;;4.07;;
3066;SDS011;1544;48.834;9.194;2023-06-10T15:23:50;3.50;;;3.30;;
3066;SDS011;1544;48.834;9.194;2023-06-10T15:26:26;3.17;;;3.07;;
3066;SDS011;1544;48.834;9.194;2023-06-10T15:29:02;3.10;;;2.97;;
3066;SDS011;1544;48.834;9.194;2023-06-10T15:31:39;4.53;;;3.47;;
3066;SDS011;1544;48.834;9.194;2023-06-10T15:34:15;3.17;;;3.00;;
3066;SDS011;1544;48.834;9.194;2023-06-10T15:36:51;3.87;;;3.67;;
3066;SDS011;1544;48.834;9.194;2023-06-10T15:39:27;2.93;;;2.73;;
3066;SDS011;1544;48.834;9.194;2023-06-10T15:42:05;3.00;;;2.85;;
3066;SDS011;1544;48.834;9.194;2023-06-10T15:44:41;3.10;;;2.88;;
3066;SDS011;1544;48.834;9.194;2023-06-10T15:47:17;3.65;;;3.45;;
3066;SDS011;1544;48.834;9.194;2023-06-10T15:49:55;2.85;;;2.75;;
3066;SDS011;1544;48.834;9.194;2023-06-10T15:52:31;3.70;;;3.13;;
3066;SDS011;1544;48.834;9.194;2023-06-10T15:55:07;2.80;;;2.70;;
3066;SDS011;1544;48.834;9.194;2023-06-10T15:57:43;2.30;;;2.20;;
3066;SDS011;1544;48.834;9.194;2023-06-10T16:00:19;2.33;;;2.22;;
3066;SDS011;1544;48.834;9.194;2023-06-10T16:02:55;2.00;;;1.90;;
3066;SDS011;1544;48.834;9.194;2023-06-10T16:05:31;2.63;;;2.53;;
3066;SDS011;1544;48.834;9.194;2023-06-10T16:08:07;2.33;;;2.22;;
3066;SDS011;1544;48.834;9.194;2023-06-10T16:10:43;2.55;;;2.45;;
3066;SDS011;1544;48.834;9.194;2023-06-10T16:13:19;2.20;;;2.10;;
3066;SDS011;1544;48.834;9.194;2023-06-10T16:15:55;2.67;;;2.58;;
3066;SDS011;1544;48.834;9.194;2023-06-10T16:18:31;4.05;;;3.95;;
3066;SDS011;1544;48.834;9.194;2023-06-10T16:21:07;7.70;;;7.30;;
3066;SDS011;1544;48.834;9.194;2023-06-10T16:23:43;4.93;;;4.60;;
3066;SDS011;1544;48.834;9.194;2023-06-10T16:26:19;3.38;;;3.20;;
3066;SDS011;1544;48.834;9.194;2023-06-10T16:28:56;2.95;;;2.85;;
3066;SDS011;1544;48.834;9.194;2023-06-10T16:31:32;2.70;;;2.60;;
3066;SDS011;1544;48.834;9.194;2023-06-10T16:34:08;3.28;;;2.70;;
3066;SDS011;1544;48.834;9.194;2023-06-10T16:36:44;2.28;;;2.17;;
3066;SDS011;1544;48.834;9.194;2023-06-10T16:39:20;2.63;;;2.53;;